createdAt,value
2022-08-07T08:22:19.116Z,49.1
2022-08-07T08:30:14.134Z,49.7
2022-08-07T08:38:18.063Z,50.3
2022-08-07T08:45:06.311Z,50.9
2022-08-07T08:53:10.946Z,51.4
2022-08-07T09:00:04.290Z,51.8
2022-08-07T09:07:04.550Z,51.8
2022-08-07T09:14:29.623Z,51.7
2022-08-07T09:26:50.776Z,51.5
2022-08-07T09:36:22.056Z,52.5
2022-08-07T09:46:28.834Z,53.2
2022-08-07T09:57:12.855Z,54.2
2022-08-07T10:05:12.315Z,54.9
2022-08-07T10:14:47.552Z,55.8
2022-08-07T10:22:33.941Z,56.4
2022-08-07T10:29:34.984Z,56.8
2022-08-07T10:37:48.485Z,57.4
2022-08-07T10:46:30.811Z,58.1
2022-08-07T10:54:17.722Z,58.9
2022-08-07T11:01:35.113Z,59.6
2022-08-07T11:10:27.418Z,60.3
2022-08-07T11:18:57.692Z,61
2022-08-07T11:25:23.181Z,61.5
2022-08-07T11:33:15.438Z,61.9
2022-08-07T11:40:56.080Z,61.9
2022-08-07T11:49:50.925Z,61.6
2022-08-07T11:58:34.174Z,61.6
2022-08-07T12:08:11.459Z,61.4
2022-08-07T12:16:06.416Z,61.3
2022-08-07T12:26:01.064Z,61.3
2022-08-07T12:34:35.600Z,61.1
2022-08-07T12:43:11.430Z,61
2022-08-07T12:51:33.273Z,60.9
2022-08-07T13:00:16.329Z,60.8
2022-08-07T13:18:18.453Z,60.5
2022-08-07T13:26:51.217Z,60.4
2022-08-07T13:36:18.051Z,60.2
2022-08-07T13:43:52.444Z,59.8
2022-08-07T13:54:56.818Z,58.6
2022-08-07T14:03:10.890Z,58.4
2022-08-07T14:11:53.085Z,58.3
2022-08-07T14:20:39.543Z,58.2
2022-08-07T19:56:58.691Z,48.1
2022-08-07T20:05:24.585Z,48.1
2022-08-07T20:15:15.729Z,48.2
2022-08-07T20:22:45.733Z,48.2
2022-08-07T20:30:47.348Z,48.2
2022-08-07T20:37:23.368Z,48.2
2022-08-07T20:45:32.483Z,48.3
2022-08-07T20:55:43.644Z,48.3
2022-08-07T21:03:55.671Z,48.3
2022-08-07T21:11:28.802Z,48.3
2022-08-07T21:20:56.028Z,48.3
2022-08-07T21:27:46.914Z,48.3
2022-08-07T21:36:31.040Z,48.4
2022-08-07T21:44:44.755Z,48.4
2022-08-07T21:53:07.897Z,48.4
2022-08-07T22:00:41.419Z,48.4
2022-08-07T22:08:36.039Z,48.4
2022-08-07T22:17:01.543Z,48.4
2022-08-07T22:23:40.362Z,48.4
2022-08-07T22:30:29.283Z,48.4
2022-08-07T22:38:24.267Z,48.4
2022-08-07T22:47:23.287Z,48.4
2022-08-07T22:55:15.014Z,48.4
2022-08-07T23:01:18.339Z,48.4
2022-08-07T23:11:13.098Z,48.4
2022-08-07T23:19:15.153Z,48.4
2022-08-07T23:27:07.730Z,48.4
2022-08-07T23:38:45.132Z,48.4
2022-08-07T23:44:32.219Z,48.4
2022-08-07T23:53:17.691Z,48.4
